Terminal Aerodrome Forecast
Issued by NWS Cleveland, OH

Home | Current Version | Previous Version | Text Only | Print | Product List | Glossary On
Versions: 1 2 3 4 5 6 7 8 9 10 11 12 13 14 15 16
000
FTUS41 KCLE 282339
TAFTOL
TAF
KTOL 282339Z 2900/2924 14003KT P6SM FEW050 BKN200
     FM291300 18007KT P6SM BKN050 OVC150
     FM292100 12006KT P6SM VCSH BKN040 OVC100=

USA.gov is the U.S. government's official web portal to all federal, state and local government web resources and services.